Terminal Aerodrome Forecast
Issued by NWS

Home | Current Version | Previous Version | Text Only | Print | Product List | Glossary On
Versions: 1 2 3 4 5 6 7 8 9 10 11 12 13 14 15 16 17 18 19 20 21 22
000
FTUS45 KTFX 292100 AAA
TAFCTB
TAF AMD
KCTB 292127Z 2921/3018 20010KT P6SM SCT090 SCT180
     FM300100 19006KT P6SM BKN180
     FM301200 26010KT P6SM SCT070 SCT180=

USA.gov is the U.S. government's official web portal to all federal, state and local government web resources and services.